createdAt,value
2022-08-20T00:01:02.293Z,14.80
2022-08-20T00:03:31.432Z,15.18
2022-08-20T00:05:59.733Z,11.02
2022-08-20T00:08:26.759Z,13.75
2022-08-20T00:10:55.515Z,10.68
2022-08-20T00:13:24.349Z,12.60
2022-08-20T00:15:51.454Z,13.18
2022-08-20T00:18:18.160Z,12.20
2022-08-20T00:20:46.287Z,13.20
2022-08-20T00:23:13.241Z,13.32
2022-08-20T00:25:39.713Z,13.68
2022-08-20T00:28:07.035Z,13.48
2022-08-20T00:30:34.599Z,13.88
2022-08-20T00:33:06.075Z,13.00
2022-08-20T00:35:33.882Z,14.02
2022-08-20T00:38:00.911Z,14.77
2022-08-20T00:40:35.061Z,13.27
2022-08-20T00:43:02.302Z,13.10
2022-08-20T00:45:30.680Z,13.57
2022-08-20T00:47:57.248Z,13.90
2022-08-20T00:50:26.731Z,13.38
2022-08-20T00:52:53.765Z,13.05
2022-08-20T00:55:22.435Z,13.55
2022-08-20T00:58:01.369Z,13.32
2022-08-20T01:00:34.529Z,13.60
2022-08-20T01:03:01.356Z,14.38
2022-08-20T01:05:29.653Z,12.73
2022-08-20T01:07:57.085Z,15.43
2022-08-20T01:10:27.586Z,15.45
2022-08-20T01:12:55.046Z,16.52
2022-08-20T01:15:31.185Z,15.02
2022-08-20T01:17:59.003Z,15.70
2022-08-20T01:20:28.219Z,15.05
2022-08-20T01:23:30.129Z,14.45
2022-08-20T01:26:08.858Z,15.30
2022-08-20T01:28:40.291Z,15.48
2022-08-20T01:31:09.403Z,15.27
2022-08-20T01:33:36.295Z,16.25
2022-08-20T01:36:03.342Z,15.70
2022-08-20T01:38:29.895Z,16.23
2022-08-20T01:41:15.123Z,15.52
2022-08-20T01:43:41.888Z,15.50
2022-08-20T01:46:11.993Z,15.90
2022-08-20T01:48:38.713Z,14.68
2022-08-20T01:51:08.183Z,16.77
2022-08-20T01:53:37.908Z,17.17
2022-08-20T01:56:08.649Z,15.52
2022-08-20T01:58:37.944Z,13.07
2022-08-20T02:01:04.521Z,13.95
2022-08-20T02:03:36.554Z,13.90
2022-08-20T02:06:05.351Z,15.13
2022-08-20T02:08:33.383Z,13.13
2022-08-20T02:10:59.927Z,12.93
2022-08-20T02:13:26.342Z,11.38
2022-08-20T02:18:20.874Z,13.48
2022-08-20T02:20:51.464Z,11.63
2022-08-20T02:23:18.690Z,11.07
2022-08-20T02:25:48.291Z,12.25
2022-08-20T02:28:16.546Z,12.07
2022-08-20T02:30:45.017Z,10.90
2022-08-20T02:33:12.353Z,11.93
2022-08-20T02:35:39.821Z,10.43
2022-08-20T02:38:06.274Z,11.48
2022-08-20T02:40:32.950Z,11.00
2022-08-20T02:43:00.101Z,11.75
2022-08-20T02:45:26.529Z,12.70
2022-08-20T02:50:23.661Z,11.13
2022-08-20T02:52:51.942Z,12.15
2022-08-20T02:55:27.429Z,12.48
2022-08-20T03:00:21.917Z,11.70
2022-08-20T03:02:48.634Z,11.25
2022-08-20T03:05:15.254Z,12.50
2022-08-20T03:07:50.173Z,11.75
2022-08-20T03:10:16.603Z,11.10
2022-08-20T03:12:43.136Z,10.63
2022-08-20T03:15:17.475Z,11.88
2022-08-20T03:17:44.839Z,10.95
2022-08-20T03:20:11.661Z,11.93
2022-08-20T03:22:38.127Z,11.93
2022-08-20T03:25:04.911Z,11.75
2022-08-20T03:27:36.526Z,12.27
2022-08-20T03:30:05.137Z,8.90
2022-08-20T03:32:31.577Z,10.50
2022-08-20T03:34:57.974Z,9.88
2022-08-20T03:39:51.205Z,8.93
2022-08-20T03:42:17.658Z,10.00
2022-08-20T03:47:10.466Z,11.93
2022-08-20T03:49:36.938Z,10.98
2022-08-20T03:52:04.543Z,11.95
2022-08-20T03:54:31.964Z,11.32
2022-08-20T03:56:59.038Z,11.60
2022-08-20T03:59:25.565Z,10.15
2022-08-20T04:01:52.628Z,11.15
2022-08-20T04:04:20.474Z,10.65
2022-08-20T04:06:47.559Z,9.75
2022-08-20T04:09:14.423Z,9.98
2022-08-20T04:11:41.625Z,10.15
2022-08-20T04:14:09.242Z,10.02
2022-08-20T04:16:37.741Z,10.27
2022-08-20T04:19:04.395Z,9.27
2022-08-20T04:21:33.033Z,9.85
2022-08-20T04:24:00.195Z,9.48
2022-08-20T04:26:26.673Z,9.80
2022-08-20T04:28:55.655Z,9.95
2022-08-20T04:31:25.343Z,9.93
2022-08-20T04:33:52.484Z,10.43
2022-08-20T04:36:18.913Z,9.50
2022-08-20T04:41:21.108Z,9.93
2022-08-20T04:43:50.966Z,9.60
2022-08-20T04:46:17.410Z,10.25
2022-08-20T04:51:15.733Z,9.18
2022-08-20T04:53:43.020Z,9.70
2022-08-20T04:56:09.616Z,10.18
2022-08-20T04:58:38.001Z,9.00
2022-08-20T05:01:06.130Z,10.02
2022-08-20T05:03:32.901Z,9.88
2022-08-20T05:05:59.688Z,9.85
2022-08-20T05:08:26.563Z,9.38
2022-08-20T05:11:01.220Z,10.38
2022-08-20T05:13:40.910Z,9.52
2022-08-20T05:16:11.119Z,9.05
2022-08-20T05:18:37.557Z,8.93
2022-08-20T05:23:35.037Z,8.35
2022-08-20T05:26:05.348Z,9.10
2022-08-20T05:28:32.742Z,8.80
2022-08-20T05:31:04.463Z,8.90
2022-08-20T05:33:31.002Z,8.80
2022-08-20T05:35:58.345Z,9.32
2022-08-20T05:38:26.244Z,10.32
2022-08-20T05:40:52.836Z,10.00
2022-08-20T05:43:19.696Z,9.45
2022-08-20T05:45:46.798Z,8.98
2022-08-20T05:48:17.630Z,8.93
2022-08-20T05:50:45.611Z,8.77
2022-08-20T05:53:12.332Z,8.68
2022-08-20T05:55:39.173Z,8.80
2022-08-20T05:58:07.752Z,8.25
2022-08-20T06:00:34.669Z,8.32
2022-08-20T06:03:19.869Z,8.88
2022-08-20T06:05:46.486Z,8.82
2022-08-20T06:08:13.101Z,7.57
2022-08-20T06:10:40.427Z,7.22
2022-08-20T06:13:10.356Z,7.00
2022-08-20T06:15:41.065Z,6.97
2022-08-20T06:18:12.377Z,5.78
2022-08-20T06:20:54.971Z,5.38
2022-08-20T06:23:23.155Z,5.43
2022-08-20T06:25:50.400Z,5.20
2022-08-20T06:28:17.895Z,4.55
2022-08-20T06:30:44.627Z,4.68
2022-08-20T06:33:11.253Z,4.57
2022-08-20T06:35:37.805Z,4.05
2022-08-20T06:38:09.477Z,4.15
2022-08-20T06:40:35.951Z,3.90
2022-08-20T06:43:02.445Z,3.28
2022-08-20T06:45:31.344Z,3.15
2022-08-20T06:47:59.137Z,2.92
2022-08-20T06:50:28.232Z,2.95
2022-08-20T06:52:55.031Z,2.70
2022-08-20T06:55:22.333Z,2.90
2022-08-20T06:57:56.444Z,2.50
2022-08-20T07:00:23.222Z,2.63
2022-08-20T07:02:49.971Z,2.80
2022-08-20T07:05:16.813Z,2.53
2022-08-20T07:07:47.386Z,2.65
2022-08-20T07:10:14.989Z,2.40
2022-08-20T07:12:42.089Z,3.13
2022-08-20T07:15:10.210Z,2.15
2022-08-20T07:17:37.339Z,2.70
2022-08-20T07:20:06.670Z,2.17
2022-08-20T07:22:36.952Z,2.47
2022-08-20T07:25:04.735Z,2.17
2022-08-20T07:27:31.338Z,1.90
2022-08-20T07:30:16.774Z,1.90
2022-08-20T07:32:47.611Z,2.28
2022-08-20T07:35:19.277Z,2.30
2022-08-20T07:37:49.921Z,2.05
2022-08-20T07:40:27.864Z,2.03
2022-08-20T07:42:55.470Z,1.80
2022-08-20T07:45:28.254Z,2.00
2022-08-20T07:47:56.039Z,2.10
2022-08-20T07:50:29.143Z,2.10
2022-08-20T07:53:01.393Z,1.83
2022-08-20T07:55:29.790Z,1.95
2022-08-20T07:57:58.091Z,1.70
2022-08-20T08:00:26.129Z,1.83
2022-08-20T08:02:53.051Z,2.22
2022-08-20T08:05:21.512Z,1.92
2022-08-20T08:07:48.787Z,2.00
2022-08-20T08:10:18.522Z,2.00
2022-08-20T08:12:48.704Z,1.50
2022-08-20T08:15:17.497Z,1.80
2022-08-20T08:17:46.374Z,1.80
2022-08-20T08:20:13.290Z,2.20
2022-08-20T08:22:42.377Z,1.80
2022-08-20T08:25:10.500Z,1.60
2022-08-20T08:27:37.042Z,1.65
2022-08-20T08:30:03.875Z,1.88
2022-08-20T08:33:18.387Z,1.98
2022-08-20T08:35:46.841Z,1.58
2022-08-20T08:38:14.427Z,1.42
2022-08-20T08:40:41.868Z,1.52
2022-08-20T08:43:11.371Z,1.60
2022-08-20T08:45:45.743Z,1.67
2022-08-20T08:48:18.740Z,1.50
2022-08-20T08:50:54.653Z,1.40
2022-08-20T08:53:35.161Z,1.70
2022-08-20T08:56:02.114Z,1.80
2022-08-20T08:58:28.669Z,1.60
2022-08-20T09:00:56.378Z,1.73
2022-08-20T09:03:34.239Z,1.70
2022-08-20T09:06:03.103Z,1.70
2022-08-20T09:08:34.983Z,1.48
2022-08-20T09:11:02.640Z,1.60
2022-08-20T09:13:29.087Z,1.70
2022-08-20T09:15:55.525Z,1.70
2022-08-20T09:18:22.076Z,1.80
2022-08-20T09:20:48.593Z,1.92
2022-08-20T09:23:15.279Z,1.60
2022-08-20T09:25:41.826Z,2.08
2022-08-20T09:28:08.406Z,1.80
2022-08-20T09:30:36.366Z,1.58
2022-08-20T09:33:04.221Z,1.73
2022-08-20T09:35:30.704Z,1.48
2022-08-20T09:37:57.570Z,1.55
2022-08-20T09:40:24.195Z,1.50
2022-08-20T09:42:52.077Z,1.75
2022-08-20T09:45:19.182Z,1.60
2022-08-20T09:47:54.932Z,1.50
2022-08-20T09:50:24.376Z,1.40
2022-08-20T09:52:53.688Z,1.50
2022-08-20T09:55:40.551Z,1.80
2022-08-20T09:58:19.767Z,1.42
2022-08-20T10:00:46.365Z,1.23
2022-08-20T10:03:12.794Z,1.40
2022-08-20T10:05:39.198Z,1.20
2022-08-20T10:08:06.724Z,1.67
2022-08-20T10:10:33.110Z,1.50
2022-08-20T10:12:59.542Z,1.40
2022-08-20T10:15:26.390Z,1.30
2022-08-20T10:17:52.813Z,1.73
2022-08-20T10:20:20.347Z,1.52
2022-08-20T10:22:46.798Z,1.67
2022-08-20T10:25:13.584Z,1.65
2022-08-20T10:27:40.008Z,1.63
2022-08-20T10:30:07.061Z,1.63
2022-08-20T10:32:35.173Z,1.60
2022-08-20T10:35:02.805Z,1.45
2022-08-20T10:37:58.824Z,1.40
2022-08-20T10:40:31.836Z,1.13
2022-08-20T10:43:01.307Z,1.65
2022-08-20T10:45:27.956Z,1.50
2022-08-20T10:47:54.344Z,1.38
2022-08-20T10:50:20.899Z,1.30
2022-08-20T10:52:48.838Z,1.73
2022-08-20T10:55:15.459Z,1.65
2022-08-20T10:57:43.472Z,1.77
2022-08-20T11:00:11.233Z,1.70
2022-08-20T11:02:37.996Z,1.63
2022-08-20T11:05:05.750Z,1.50
2022-08-20T11:07:55.227Z,1.70
2022-08-20T11:10:21.006Z,1.60
2022-08-20T11:12:48.194Z,1.58
2022-08-20T11:15:15.325Z,1.85
2022-08-20T11:17:43.119Z,1.80
2022-08-20T11:20:15.468Z,1.50
2022-08-20T11:22:44.951Z,1.50
2022-08-20T11:25:11.483Z,1.92
2022-08-20T11:27:52.725Z,1.35
2022-08-20T11:30:24.055Z,1.58
2022-08-20T11:32:50.615Z,1.98
2022-08-20T11:35:41.716Z,1.77
2022-08-20T11:38:05.130Z,1.70
2022-08-20T11:40:31.758Z,1.65
2022-08-20T11:43:15.603Z,1.60
2022-08-20T11:45:46.848Z,1.90
2022-08-20T11:48:13.493Z,1.75
2022-08-20T11:50:40.021Z,2.05
2022-08-20T11:53:07.522Z,2.03
2022-08-20T11:55:34.657Z,1.77
2022-08-20T11:58:01.582Z,1.52
2022-08-20T12:00:31.902Z,1.92
2022-08-20T12:03:00.206Z,1.48
2022-08-20T12:05:27.398Z,1.52
2022-08-20T12:07:53.889Z,1.45
2022-08-20T12:10:20.439Z,1.95
2022-08-20T12:12:46.862Z,2.20
2022-08-20T12:15:13.290Z,1.60
2022-08-20T12:17:39.858Z,1.77
2022-08-20T12:20:11.354Z,1.60
2022-08-20T12:22:38.152Z,1.95
2022-08-20T12:25:05.586Z,1.63
2022-08-20T12:27:32.633Z,1.52
2022-08-20T12:30:01.486Z,1.90
2022-08-20T12:32:28.974Z,1.90
2022-08-20T12:34:55.759Z,1.95
2022-08-20T12:37:23.386Z,1.80
2022-08-20T12:39:51.703Z,1.85
2022-08-20T12:42:18.857Z,2.20
2022-08-20T12:44:45.412Z,1.95
2022-08-20T12:47:13.481Z,2.20
2022-08-20T12:49:41.426Z,1.90
2022-08-20T12:52:08.393Z,2.05
2022-08-20T12:54:35.017Z,2.00
2022-08-20T12:57:01.628Z,1.80
2022-08-20T12:59:33.761Z,2.10
2022-08-20T13:02:14.048Z,2.00
2022-08-20T13:04:44.282Z,1.77
2022-08-20T13:07:12.572Z,1.90
2022-08-20T13:09:40.357Z,2.40
2022-08-20T13:12:07.138Z,2.05
2022-08-20T13:14:33.519Z,2.25
2022-08-20T13:17:00.888Z,2.13
2022-08-20T13:19:28.430Z,2.20
2022-08-20T13:21:55.312Z,2.20
2022-08-20T13:24:22.453Z,2.10
2022-08-20T13:26:49.078Z,2.30
2022-08-20T13:29:16.407Z,2.35
2022-08-20T13:31:42.900Z,2.35
2022-08-20T13:34:09.685Z,2.17
2022-08-20T13:36:36.564Z,2.00
2022-08-20T13:39:07.513Z,2.20
2022-08-20T13:41:34.422Z,2.05
2022-08-20T13:44:00.841Z,2.45
2022-08-20T13:46:27.241Z,2.10
2022-08-20T13:48:53.677Z,2.15
2022-08-20T13:51:20.253Z,1.98
2022-08-20T13:53:48.201Z,2.17
2022-08-20T13:56:14.625Z,1.88
2022-08-20T13:58:42.760Z,2.35
2022-08-20T14:01:09.314Z,2.08
2022-08-20T14:03:35.776Z,1.98
2022-08-20T14:06:02.728Z,1.85
2022-08-20T14:08:29.146Z,1.67
2022-08-20T14:10:55.572Z,1.75
2022-08-20T14:13:23.335Z,1.90
2022-08-20T14:15:50.223Z,1.85
2022-08-20T14:18:16.708Z,1.50
2022-08-20T14:20:45.650Z,2.03
2022-08-20T14:23:12.478Z,2.03
2022-08-20T14:25:40.638Z,1.80
2022-08-20T14:28:13.137Z,2.28
2022-08-20T14:30:52.737Z,2.28
2022-08-20T14:33:19.796Z,1.83
2022-08-20T14:35:46.294Z,1.90
2022-08-20T14:38:13.629Z,2.05
2022-08-20T14:40:54.715Z,1.85
2022-08-20T14:44:05.293Z,2.10
2022-08-20T14:46:36.525Z,2.30
2022-08-20T14:49:03.880Z,2.20
2022-08-20T14:51:31.457Z,2.17
2022-08-20T14:53:58.773Z,2.20
2022-08-20T14:56:29.812Z,1.98
2022-08-20T14:58:58.041Z,2.47
2022-08-20T15:01:28.257Z,2.10
2022-08-20T15:03:55.427Z,2.80
2022-08-20T15:06:24.916Z,1.92
2022-08-20T15:08:52.100Z,2.05
2022-08-20T15:11:18.802Z,2.17
2022-08-20T15:13:45.497Z,2.10
2022-08-20T15:16:12.226Z,2.10
2022-08-20T15:21:27.711Z,2.15
2022-08-20T15:23:54.331Z,2.83
2022-08-20T15:26:21.046Z,2.50
2022-08-20T15:28:47.794Z,2.00
2022-08-20T15:31:14.386Z,2.10
2022-08-20T15:33:41.171Z,2.00
2022-08-20T15:36:09.209Z,2.00
2022-08-20T15:38:35.958Z,2.05
2022-08-20T15:41:02.584Z,2.00
2022-08-20T15:43:29.864Z,1.85
2022-08-20T15:45:56.985Z,2.00
2022-08-20T15:48:30.780Z,1.80
2022-08-20T15:50:57.314Z,3.70
2022-08-20T15:53:42.919Z,2.50
2022-08-20T15:56:24.938Z,14.32
2022-08-20T15:58:55.054Z,1.98
2022-08-20T16:01:32.533Z,2.72
2022-08-20T16:04:09.752Z,1.90
2022-08-20T16:06:36.611Z,1.80
2022-08-20T16:12:22.705Z,1.73
2022-08-20T16:14:51.741Z,1.83
2022-08-20T16:17:21.749Z,1.70
2022-08-20T16:19:55.683Z,2.50
2022-08-20T16:22:22.920Z,3.13
2022-08-20T16:24:50.170Z,1.70
2022-08-20T16:27:17.152Z,1.70
2022-08-20T16:30:04.467Z,2.00
2022-08-20T16:32:31.066Z,2.20
2022-08-20T16:35:00.138Z,1.75
2022-08-20T16:37:33.823Z,1.67
2022-08-20T16:40:10.751Z,1.88
2022-08-20T16:42:38.717Z,1.80
2022-08-20T16:45:08.294Z,1.80
2022-08-20T16:47:38.239Z,2.00
2022-08-20T16:50:07.732Z,1.70
2022-08-20T16:52:34.145Z,1.88
2022-08-20T16:55:00.563Z,2.20
2022-08-20T16:57:27.675Z,1.88
2022-08-20T17:00:22.579Z,2.17
2022-08-20T17:02:50.703Z,2.10
2022-08-20T17:08:47.963Z,2.08
2022-08-20T17:11:22.358Z,1.70
2022-08-20T17:13:48.850Z,2.28
2022-08-20T17:16:15.255Z,2.03
2022-08-20T17:18:43.117Z,1.83
2022-08-20T17:21:12.649Z,1.80
2022-08-20T17:23:55.234Z,1.83
2022-08-20T17:26:59.566Z,1.67
2022-08-20T17:29:28.106Z,1.90
2022-08-20T17:31:55.901Z,2.00
2022-08-20T17:34:24.001Z,1.80
2022-08-20T17:37:16.929Z,1.60
2022-08-20T17:39:47.856Z,1.90
2022-08-20T17:42:17.891Z,2.00
2022-08-20T17:44:48.513Z,1.80
2022-08-20T17:47:18.866Z,2.00
2022-08-20T17:49:57.468Z,1.60
2022-08-20T17:52:39.852Z,1.98
2022-08-20T17:55:07.207Z,1.67
2022-08-20T17:57:37.882Z,1.58
2022-08-20T18:00:14.799Z,1.85
2022-08-20T18:02:41.817Z,1.52
2022-08-20T18:05:14.197Z,1.80
2022-08-20T18:07:44.918Z,1.58
2022-08-20T18:10:16.017Z,1.77
2022-08-20T18:12:56.492Z,1.58
2022-08-20T18:15:29.496Z,1.70
2022-08-20T18:18:14.877Z,2.05
2022-08-20T18:23:37.826Z,1.70
2022-08-20T18:26:07.788Z,1.90
2022-08-20T18:28:38.683Z,1.60
2022-08-20T18:31:08.984Z,1.67
2022-08-20T18:33:35.865Z,1.70
2022-08-20T18:36:07.125Z,1.50
2022-08-20T18:38:39.510Z,1.60
2022-08-20T18:41:10.921Z,1.80
2022-08-20T18:43:38.124Z,1.48
2022-08-20T18:46:10.933Z,1.80
2022-08-20T18:48:37.635Z,2.03
2022-08-20T18:51:11.841Z,2.90
2022-08-20T18:53:47.135Z,1.60
2022-08-20T19:00:00.134Z,1.48
2022-08-20T19:02:38.831Z,1.67
2022-08-20T19:05:08.568Z,2.10
2022-08-20T19:07:57.670Z,1.65
2022-08-20T19:10:58.648Z,1.50
2022-08-20T19:13:42.452Z,1.70
2022-08-20T19:16:33.324Z,2.05
2022-08-20T19:18:59.819Z,2.03
2022-08-20T19:21:30.322Z,1.98
2022-08-20T19:23:58.040Z,2.00
2022-08-20T19:26:26.947Z,2.10
2022-08-20T19:28:55.449Z,2.10
2022-08-20T19:31:26.427Z,2.10
2022-08-20T19:34:21.899Z,2.22
2022-08-20T19:37:27.741Z,2.30
2022-08-20T19:39:50.821Z,2.30
2022-08-20T19:42:25.538Z,1.88
2022-08-20T19:44:55.437Z,2.30
2022-08-20T19:47:25.096Z,2.20
2022-08-20T19:50:05.573Z,2.10
2022-08-20T19:52:52.295Z,2.40
2022-08-20T19:55:30.889Z,2.08
2022-08-20T19:57:58.472Z,2.40
2022-08-20T20:00:26.217Z,1.88
2022-08-20T20:02:52.780Z,2.13
2022-08-20T20:05:19.436Z,2.25
2022-08-20T20:07:47.689Z,2.28
2022-08-20T20:10:23.362Z,2.47
2022-08-20T20:16:37.338Z,2.85
2022-08-20T20:22:27.327Z,3.20
2022-08-20T20:24:59.714Z,3.20
2022-08-20T20:30:31.760Z,3.10
2022-08-20T20:33:12.429Z,3.03
2022-08-20T20:35:39.215Z,2.97
2022-08-20T20:38:07.456Z,3.00
2022-08-20T20:40:42.924Z,2.65
2022-08-20T20:43:11.890Z,3.13
2022-08-20T20:45:43.549Z,3.17
2022-08-20T20:48:15.092Z,3.22
2022-08-20T20:50:42.343Z,3.53
2022-08-20T20:53:08.922Z,3.80
2022-08-20T20:55:37.387Z,3.10
2022-08-20T20:58:04.817Z,3.10
2022-08-20T21:00:32.600Z,3.25
2022-08-20T21:03:02.548Z,2.97
2022-08-20T21:05:30.549Z,3.13
2022-08-20T21:08:00.819Z,3.40
2022-08-20T21:10:29.079Z,4.00
2022-08-20T21:12:55.958Z,3.72
2022-08-20T21:15:23.780Z,3.75
2022-08-20T21:17:50.441Z,3.65
2022-08-20T21:20:16.942Z,4.20
2022-08-20T21:25:09.902Z,4.00
2022-08-20T21:27:36.591Z,4.13
2022-08-20T21:30:04.139Z,3.85
2022-08-20T21:32:30.585Z,4.00
2022-08-20T21:37:23.547Z,3.33
2022-08-20T21:39:49.971Z,3.90
2022-08-20T21:44:56.292Z,3.10
2022-08-20T21:47:22.826Z,3.40
2022-08-20T21:52:15.532Z,3.40
2022-08-20T21:54:41.904Z,3.45
2022-08-20T21:57:11.997Z,3.75
2022-08-20T21:59:39.195Z,4.03
2022-08-20T22:02:06.373Z,4.30
2022-08-20T22:04:35.522Z,3.20
2022-08-20T22:07:02.274Z,2.90
2022-08-20T22:12:00.046Z,3.25
2022-08-20T22:14:27.426Z,3.28
2022-08-20T22:21:46.658Z,3.08
2022-08-20T22:24:13.582Z,3.20
2022-08-20T22:26:40.706Z,3.05
2022-08-20T22:29:08.300Z,3.22
2022-08-20T22:31:36.389Z,3.50
2022-08-20T22:34:03.132Z,3.22
2022-08-20T22:36:29.500Z,3.58
2022-08-20T22:38:55.906Z,3.33
2022-08-20T22:41:22.393Z,3.22
2022-08-20T22:46:24.680Z,2.90
2022-08-20T22:48:53.337Z,3.25
2022-08-20T22:53:46.928Z,2.83
2022-08-20T22:56:19.844Z,3.30
2022-08-20T22:58:48.315Z,3.83
2022-08-20T23:01:16.977Z,3.83
2022-08-20T23:03:43.549Z,3.50
2022-08-20T23:11:02.671Z,3.35
2022-08-20T23:13:29.350Z,3.60
2022-08-20T23:18:22.132Z,3.38
2022-08-20T23:20:51.297Z,3.40
2022-08-20T23:23:18.069Z,3.47
2022-08-20T23:25:44.739Z,2.70
2022-08-20T23:28:11.188Z,3.03
2022-08-20T23:30:37.550Z,3.10
2022-08-20T23:33:03.906Z,3.00
2022-08-20T23:35:32.931Z,3.08
2022-08-20T23:37:59.782Z,2.38
2022-08-20T23:42:54.769Z,2.60
2022-08-20T23:45:21.710Z,2.70
2022-08-20T23:47:48.245Z,3.00
2022-08-20T23:55:07.902Z,3.05
2022-08-20T23:57:34.339Z,2.88
